Time;durP1;ratioP1;P1;durP2;ratioP2;P2;SDS_P1;SDS_P2;PMS_P1;PMS_P2;Temp;Humidity;BMP_temperature;BMP_pressure;BME280_temperature;BME280_humidity;BME280_pressure;Samples;Min_cycle;Max_cycle;Signal;HPM_P1;HPM_P2
2020/12/21 00:00:15;;;;;;;10.48;7.40;;;;;;;4.24;70.70;95735.25;4192632;28;20064;-71
2020/12/21 00:02:16;;;;;;;9.70;7.20;;;;;;;4.30;70.66;95737.44;4174918;28;20520;-68
2020/12/21 00:04:19;;;;;;;9.73;7.10;;;;;;;4.32;70.73;95733.00;4175347;28;20099;-77
2020/12/21 00:06:21;;;;;;;10.45;7.03;;;;;;;4.33;71.02;95737.28;4183405;28;20057;-76
2020/12/21 00:08:22;;;;;;;9.98;7.03;;;;;;;4.42;70.52;95738.47;4200428;28;20070;-78
2020/12/21 00:10:23;;;;;;;10.18;6.57;;;;;;;4.40;70.08;95740.31;4198624;28;20067;-77
2020/12/21 00:12:25;;;;;;;11.70;6.78;;;;;;;4.34;70.49;95738.94;4192699;28;20124;-77
2020/12/21 00:14:26;;;;;;;10.45;7.53;;;;;;;4.33;70.35;95739.88;4192572;28;20447;-76
2020/12/21 00:16:39;;;;;;;12.48;8.50;;;;;;;4.34;70.55;95745.88;4192377;28;20435;-76
2020/12/21 00:18:40;;;;;;;12.98;7.10;;;;;;;4.34;70.41;95738.94;4180552;28;20053;-69
2020/12/21 00:20:41;;;;;;;10.32;6.93;;;;;;;4.38;70.21;95744.78;4187692;28;20577;-69
2020/12/21 00:22:43;;;;;;;10.43;6.80;;;;;;;4.29;69.77;95747.00;4173697;28;20049;-69
2020/12/21 00:24:45;;;;;;;11.00;7.75;;;;;;;4.22;70.45;95750.09;4192463;28;20053;-68
2020/12/21 00:26:47;;;;;;;12.45;7.82;;;;;;;4.23;70.88;95749.16;4190974;28;20057;-69
2020/12/21 00:28:48;;;;;;;10.68;6.82;;;;;;;4.26;70.83;95744.63;4172940;28;20073;-70
2020/12/21 00:30:50;;;;;;;10.43;6.75;;;;;;;4.20;70.52;95750.19;4189929;28;20408;-69
2020/12/21 00:33:06;;;;;;;11.20;7.60;;;;;;;4.20;70.52;95746.75;4193951;28;20545;-69
2020/12/21 00:35:08;;;;;;;9.98;6.72;;;;;;;4.07;70.79;95754.44;4193853;28;20041;-69
2020/12/21 00:37:09;;;;;;;10.75;7.30;;;;;;;3.98;71.11;95761.03;4190094;28;20056;-69
2020/12/21 00:39:11;;;;;;;11.93;7.25;;;;;;;3.67;71.49;95760.25;4190743;28;20048;-69
2020/12/21 00:41:15;;;;;;;10.70;6.60;;;;;;;3.52;72.46;95766.34;4191675;28;20052;-71
2020/12/21 00:43:16;;;;;;;9.07;6.22;;;;;;;3.62;72.51;95761.47;4191180;28;20154;-69
2020/12/21 00:45:17;;;;;;;10.65;6.82;;;;;;;3.76;72.48;95758.03;4191252;28;20059;-70
2020/12/21 00:47:18;;;;;;;10.45;6.68;;;;;;;3.88;71.73;95758.16;4173177;28;20566;-69
2020/12/21 00:49:20;;;;;;;9.73;6.38;;;;;;;3.98;71.78;95755.00;4192577;28;20128;-69
2020/12/21 00:51:22;;;;;;;11.63;6.50;;;;;;;4.03;71.28;95748.59;4173178;28;20061;-71
2020/12/21 00:53:24;;;;;;;9.38;6.00;;;;;;;4.07;70.90;95747.50;4188487;28;20070;-69
2020/12/21 00:55:25;;;;;;;9.95;6.60;;;;;;;4.19;70.75;95756.28;4174670;28;20155;-68
2020/12/21 00:57:31;;;;;;;9.93;6.28;;;;;;;4.22;70.19;95757.88;4188712;28;20140;-69
2020/12/21 00:59:32;;;;;;;12.43;7.13;;;;;;;4.26;70.20;95752.41;4190518;28;20048;-70
2020/12/21 01:01:34;;;;;;;9.63;6.32;;;;;;;4.33;70.47;95752.84;4191845;28;20060;-69
2020/12/21 01:03:36;;;;;;;10.02;6.30;;;;;;;4.37;70.03;95764.69;4191333;28;20056;-70
2020/12/21 01:05:37;;;;;;;9.88;6.55;;;;;;;4.39;70.22;95762.00;4204438;28;20460;-68
2020/12/21 01:07:38;;;;;;;9.98;6.53;;;;;;;4.47;69.32;95759.75;4206084;28;20052;-70
2020/12/21 01:09:45;;;;;;;9.30;6.03;;;;;;;4.46;69.69;95756.34;4199042;28;20053;-69
2020/12/21 01:11:47;;;;;;;10.20;6.40;;;;;;;4.40;69.72;95756.72;4189993;28;20048;-69
2020/12/21 01:13:48;;;;;;;8.68;5.95;;;;;;;4.31;69.13;95755.53;4189517;28;20052;-69
2020/12/21 01:15:49;;;;;;;9.30;6.45;;;;;;;4.23;69.80;95755.16;4190917;28;20567;-69
2020/12/21 01:17:50;;;;;;;8.23;6.18;;;;;;;4.28;69.52;95757.47;4185920;28;20048;-69
2020/12/21 01:19:52;;;;;;;11.05;6.50;;;;;;;4.35;69.37;95756.19;4183768;28;20060;-67
2020/12/21 01:21:53;;;;;;;11.55;6.10;;;;;;;4.28;68.97;95749.69;4191674;28;20053;-70
2020/12/21 01:23:56;;;;;;;8.05;5.90;;;;;;;4.24;69.39;95751.66;4191033;28;20140;-70
2020/12/21 01:25:57;;;;;;;12.00;6.95;;;;;;;4.24;69.28;95746.47;4189590;28;20056;-69
2020/12/21 01:28:04;;;;;;;8.75;5.78;;;;;;;4.31;69.59;95750.34;4156093;28;20151;-69
2020/12/21 01:30:05;;;;;;;9.45;6.35;;;;;;;4.34;69.28;95753.66;4173625;28;20139;-79
2020/12/21 01:32:06;;;;;;;10.68;6.30;;;;;;;4.38;69.09;95752.56;4157263;28;20424;-77
2020/12/21 01:34:08;;;;;;;10.07;6.38;;;;;;;4.39;69.19;95749.88;4191861;28;20045;-76
2020/12/21 01:36:09;;;;;;;8.48;6.22;;;;;;;4.38;69.10;95743.00;4191249;28;20431;-78
2020/12/21 01:38:10;;;;;;;8.25;5.45;;;;;;;4.39;68.50;95747.28;4191545;28;20105;-69
2020/12/21 01:40:12;;;;;;;9.38;6.65;;;;;;;4.21;68.89;95751.00;4175550;28;20056;-72
2020/12/21 01:42:14;;;;;;;10.88;6.70;;;;;;;4.17;69.16;95742.56;4194001;28;20137;-69
2020/12/21 01:44:16;;;;;;;9.88;6.25;;;;;;;4.19;69.62;95745.06;4193508;28;20403;-68
2020/12/21 01:46:17;;;;;;;10.50;6.97;;;;;;;4.23;69.80;95749.16;4193712;28;20052;-70
2020/12/21 01:48:19;;;;;;;10.30;6.20;;;;;;;4.27;69.52;95745.44;4173156;28;20053;-70
2020/12/21 01:50:20;;;;;;;8.20;6.32;;;;;;;4.31;69.30;95744.31;4175240;28;20146;-68
2020/12/21 01:52:21;;;;;;;9.73;6.03;;;;;;;4.14;69.10;95741.94;4194646;28;20095;-68
2020/12/21 01:54:23;;;;;;;11.75;6.72;;;;;;;3.85;70.20;95747.97;4160349;28;20045;-70
2020/12/21 01:56:24;;;;;;;8.80;6.07;;;;;;;3.75;70.70;95746.03;4172186;28;20140;-69
2020/12/21 01:58:25;;;;;;;10.75;6.50;;;;;;;3.82;70.88;95750.72;4197297;28;20044;-70
2020/12/21 02:00:29;;;;;;;10.30;6.57;;;;;;;3.93;70.70;95736.28;4192593;28;20486;-69
2020/12/21 02:02:30;;;;;;;10.50;6.22;;;;;;;4.07;70.48;95744.91;4194540;28;20055;-69
2020/12/21 02:04:32;;;;;;;10.35;6.70;;;;;;;4.16;69.78;95743.50;4198546;28;20071;-69
2020/12/21 02:06:33;;;;;;;11.15;6.75;;;;;;;4.19;69.31;95747.66;4191802;28;20447;-70
2020/12/21 02:08:35;;;;;;;10.63;7.18;;;;;;;4.22;69.60;95744.91;4151101;28;20144;-68
2020/12/21 02:10:36;;;;;;;10.98;6.55;;;;;;;4.29;69.86;95747.00;4186731;28;20507;-70
2020/12/21 02:12:38;;;;;;;11.60;6.88;;;;;;;4.30;69.58;95742.63;4171354;28;20447;-70
2020/12/21 02:14:39;;;;;;;10.25;6.85;;;;;;;4.29;69.57;95741.81;4192992;28;20574;-69
2020/12/21 02:16:41;;;;;;;11.70;6.25;;;;;;;4.35;69.00;95738.03;4175229;28;20065;-69
2020/12/21 02:18:42;;;;;;;11.52;6.60;;;;;;;4.37;69.65;95736.16;4194007;28;20440;-70
2020/12/21 02:20:43;;;;;;;11.70;7.03;;;;;;;4.39;68.95;95731.72;4177135;28;20053;-68
2020/12/21 02:22:45;;;;;;;10.55;6.93;;;;;;;4.40;68.66;95735.13;4193179;28;20124;-68
2020/12/21 02:24:46;;;;;;;11.45;6.80;;;;;;;4.45;68.91;95728.75;4194452;28;20144;-68
2020/12/21 02:26:47;;;;;;;11.13;6.93;;;;;;;4.39;69.08;95723.94;4192345;28;20506;-68
2020/12/21 02:28:54;;;;;;;10.45;6.70;;;;;;;4.39;69.60;95733.44;4192799;28;20052;-69
2020/12/21 02:30:55;;;;;;;10.95;6.72;;;;;;;4.39;69.14;95725.66;4188734;28;20071;-70
2020/12/21 02:32:57;;;;;;;11.15;6.60;;;;;;;4.38;69.61;95726.63;4176953;28;20052;-69
2020/12/21 02:34:58;;;;;;;11.20;6.70;;;;;;;4.36;69.26;95728.47;4194354;28;20049;-69
2020/12/21 02:36:59;;;;;;;8.43;5.95;;;;;;;4.38;69.76;95737.00;4202933;28;20052;-76
2020/12/21 02:39:01;;;;;;;10.90;6.95;;;;;;;4.39;69.59;95736.91;4193130;28;20044;-78
2020/12/21 02:41:03;;;;;;;9.73;6.80;;;;;;;4.41;69.72;95734.19;4192198;28;20057;-79
2020/12/21 02:43:04;;;;;;;11.48;7.40;;;;;;;4.40;69.12;95733.38;4174919;28;20053;-78
2020/12/21 02:45:06;;;;;;;10.60;6.60;;;;;;;4.43;69.07;95728.00;4159631;28;20045;-77
2020/12/21 02:47:07;;;;;;;11.77;6.88;;;;;;;4.45;68.66;95731.34;4186829;28;20124;-77
2020/12/21 02:49:08;;;;;;;8.98;5.72;;;;;;;4.44;69.33;95727.06;4194249;28;20452;-77
2020/12/21 02:51:16;;;;;;;9.00;5.90;;;;;;;4.42;69.27;95725.50;4175253;28;20100;-77
2020/12/21 02:53:19;;;;;;;11.32;6.53;;;;;;;4.41;69.41;95729.84;4176600;28;20052;-76
2020/12/21 02:55:20;;;;;;;11.57;6.35;;;;;;;4.43;69.42;95728.00;4193818;28;20067;-75
2020/12/21 02:57:22;;;;;;;9.52;6.40;;;;;;;4.47;69.25;95729.47;4192487;28;20053;-77
2020/12/21 02:59:24;;;;;;;9.20;6.05;;;;;;;4.49;69.43;95732.78;4192801;28;20067;-77
2020/12/21 03:01:25;;;;;;;9.95;6.50;;;;;;;4.49;69.34;95735.38;4193689;28;20049;-78
2020/12/21 03:03:26;;;;;;;10.07;6.47;;;;;;;4.51;68.68;95737.88;4197898;28;20372;-77
2020/12/21 03:05:27;;;;;;;11.98;6.35;;;;;;;4.49;68.98;95737.16;4183680;28;20190;-76
2020/12/21 03:07:29;;;;;;;9.65;7.03;;;;;;;4.44;68.71;95739.19;4172543;28;20057;-77
2020/12/21 03:09:30;;;;;;;9.75;7.03;;;;;;;4.38;69.40;95745.59;4190519;28;20488;-78
2020/12/21 03:11:31;;;;;;;9.80;5.95;;;;;;;4.41;68.98;95744.56;4175486;28;20062;-78
2020/12/21 03:13:33;;;;;;;10.68;6.22;;;;;;;4.34;69.35;95745.88;4169918;28;20547;-79
2020/12/21 03:15:34;;;;;;;13.00;6.75;;;;;;;4.33;69.57;95750.25;4200352;28;20056;-78
2020/12/21 03:17:36;;;;;;;10.35;6.25;;;;;;;4.36;68.72;95750.03;4193355;28;20048;-77
2020/12/21 03:19:37;;;;;;;15.68;11.15;;;;;;;4.38;69.34;95743.00;4194294;28;20112;-77
2020/12/21 03:21:39;;;;;;;54.42;34.15;;;;;;;4.44;69.99;95747.81;4175189;28;20464;-79
2020/12/21 03:23:40;;;;;;;16.35;10.52;;;;;;;4.49;69.42;95742.34;4192025;28;20048;-77
2020/12/21 03:25:41;;;;;;;11.70;6.95;;;;;;;4.51;69.00;95741.31;4176488;28;20044;-77
2020/12/21 03:27:43;;;;;;;10.15;6.85;;;;;;;4.53;68.77;95740.38;4191568;28;20059;-77
2020/12/21 03:29:44;;;;;;;9.60;6.30;;;;;;;4.58;69.08;95735.72;4175403;28;20059;-77
2020/12/21 03:31:45;;;;;;;8.85;6.13;;;;;;;4.54;69.39;95731.66;4193076;28;20059;-77
2020/12/21 03:33:47;;;;;;;19.67;6.22;;;;;;;4.57;68.62;95736.66;4192254;28;20091;-80
2020/12/21 03:35:48;;;;;;;9.88;6.38;;;;;;;4.54;68.35;95729.91;4193077;28;20040;-76
2020/12/21 03:37:49;;;;;;;12.15;6.13;;;;;;;4.49;68.59;95737.97;4193911;28;20070;-78
2020/12/21 03:39:51;;;;;;;9.07;6.15;;;;;;;4.44;68.30;95729.66;4193582;28;20052;-77
2020/12/21 03:41:52;;;;;;;11.10;6.68;;;;;;;4.37;68.80;95730.16;4192172;28;20071;-77
2020/12/21 03:43:53;;;;;;;11.57;7.00;;;;;;;4.19;69.12;95725.16;4192117;28;20059;-78
2020/12/21 03:45:55;;;;;;;10.63;6.32;;;;;;;4.17;69.39;95726.19;4192915;28;20052;-78
2020/12/21 03:47:56;;;;;;;10.18;6.32;;;;;;;4.17;69.81;95726.19;4176067;28;20132;-77
2020/12/21 03:49:57;;;;;;;12.70;7.63;;;;;;;4.16;69.94;95720.16;4189288;28;20056;-76
2020/12/21 03:51:58;;;;;;;10.73;6.85;;;;;;;4.22;69.92;95730.16;4189809;28;20487;-77
2020/12/21 03:54:00;;;;;;;13.90;6.85;;;;;;;4.24;69.61;95727.47;4175549;28;20484;-78
2020/12/21 03:56:02;;;;;;;12.98;6.97;;;;;;;4.24;69.53;95727.47;4175156;28;20107;-78
2020/12/21 03:58:04;;;;;;;11.65;6.43;;;;;;;4.09;70.08;95724.91;4173054;28;20546;-78
2020/12/21 04:00:07;;;;;;;10.30;6.63;;;;;;;4.07;70.08;95724.16;4192754;28;20059;-80
2020/12/21 04:02:08;;;;;;;11.65;7.05;;;;;;;4.07;70.26;95720.75;4189495;28;20148;-70
2020/12/21 04:04:09;;;;;;;11.20;6.63;;;;;;;3.97;70.30;95730.00;4151371;28;20045;-70
2020/12/21 04:06:11;;;;;;;14.30;7.78;;;;;;;3.95;70.67;95727.50;4192295;28;20051;-69
2020/12/21 04:08:12;;;;;;;11.95;7.35;;;;;;;3.87;70.99;95734.91;4191771;28;20044;-69
2020/12/21 04:10:14;;;;;;;10.38;6.82;;;;;;;3.91;71.27;95741.56;4191329;28;20048;-77
2020/12/21 04:12:15;;;;;;;12.98;7.22;;;;;;;3.99;70.93;95731.56;4174958;28;20288;-76
2020/12/21 04:14:17;;;;;;;9.98;7.03;;;;;;;4.08;70.48;95733.59;4191109;28;20056;-76
2020/12/21 04:16:18;;;;;;;11.70;7.55;;;;;;;4.18;70.43;95738.22;4191316;28;20232;-78
2020/12/21 04:18:20;;;;;;;13.90;7.88;;;;;;;4.22;70.17;95737.94;4175124;28;20053;-76
2020/12/21 04:20:21;;;;;;;10.52;7.22;;;;;;;4.27;69.80;95732.47;4173991;28;20053;-77
2020/12/21 04:22:22;;;;;;;12.45;6.97;;;;;;;4.29;70.08;95726.25;4192833;28;20044;-78
2020/12/21 04:24:24;;;;;;;12.60;7.40;;;;;;;4.35;69.75;95725.06;4192600;28;20048;-77
2020/12/21 04:26:25;;;;;;;11.98;7.63;;;;;;;4.36;69.69;95724.09;4191506;28;20048;-77
2020/12/21 04:28:26;;;;;;;12.60;7.70;;;;;;;4.27;69.40;95720.31;4192223;28;20068;-77
2020/12/21 04:30:27;;;;;;;15.10;7.65;;;;;;;4.15;70.33;95723.69;4173518;28;20107;-77
2020/12/21 04:32:28;;;;;;;13.48;7.75;;;;;;;4.14;70.47;95726.38;4191780;28;20055;-78
2020/12/21 04:34:30;;;;;;;14.50;8.52;;;;;;;4.11;70.76;95724.81;4192544;28;20423;-77
2020/12/21 04:36:31;;;;;;;12.07;7.88;;;;;;;4.16;71.20;95721.94;4191994;28;20053;-77
2020/12/21 04:38:32;;;;;;;13.10;8.10;;;;;;;4.18;70.53;95730.44;4192095;28;20044;-76
2020/12/21 04:40:33;;;;;;;13.35;8.23;;;;;;;4.23;70.89;95726.63;4192741;28;20048;-76
2020/12/21 04:42:50;;;;;;;15.05;7.78;;;;;;;4.25;70.61;95724.78;4191280;28;20139;-76
2020/12/21 04:44:52;;;;;;;14.27;8.40;;;;;;;4.29;70.52;95721.06;4175756;28;20132;-78
2020/12/21 04:46:57;;;;;;;12.75;8.40;;;;;;;4.21;70.20;95732.84;4190481;28;20052;-78
2020/12/21 04:49:01;;;;;;;17.65;8.93;;;;;;;4.21;70.63;95733.66;4174475;28;20052;-77
2020/12/21 04:51:03;;;;;;;13.93;8.25;;;;;;;4.27;71.20;95722.09;4174045;28;20111;-78
2020/12/21 04:53:07;;;;;;;14.35;8.52;;;;;;;4.32;70.56;95720.03;4173594;28;20045;-76
2020/12/21 04:55:08;;;;;;;13.45;7.97;;;;;;;4.38;70.32;95724.84;4174842;28;20169;-76
2020/12/21 04:57:10;;;;;;;14.77;9.07;;;;;;;4.44;70.27;95724.47;4190851;28;20381;-78
2020/12/21 04:59:12;;;;;;;13.02;7.90;;;;;;;4.45;69.72;95720.09;4174148;28;20146;-77
2020/12/21 05:01:13;;;;;;;12.07;8.23;;;;;;;4.50;69.89;95724.09;4191104;28;20121;-76
2020/12/21 05:03:14;;;;;;;13.15;8.02;;;;;;;4.56;69.96;95732.41;4190410;28;20056;-79
2020/12/21 05:05:31;;;;;;;14.40;8.38;;;;;;;4.60;69.33;95731.28;4191502;28;20052;-78
2020/12/21 05:07:32;;;;;;;15.85;7.88;;;;;;;4.63;69.41;95731.91;4191826;28;20488;-78
2020/12/21 05:09:33;;;;;;;15.25;8.52;;;;;;;4.66;69.34;95738.69;4198214;28;20062;-77
2020/12/21 05:11:38;;;;;;;17.17;9.60;;;;;;;4.61;69.03;95735.56;4185390;28;20164;-77
2020/12/21 05:13:39;;;;;;;16.23;9.57;;;;;;;4.59;69.46;95737.41;4202884;28;20056;-78
2020/12/21 05:15:40;;;;;;;22.35;9.32;;;;;;;4.58;69.64;95739.19;4164820;28;20144;-76
2020/12/21 05:17:42;;;;;;;17.77;8.98;;;;;;;4.57;69.52;95744.47;4195104;28;20411;-76
2020/12/21 05:19:44;;;;;;;18.92;10.18;;;;;;;4.58;69.77;95743.50;4206239;28;20056;-77
2020/12/21 05:21:53;;;;;;;90.15;49.65;;;;;;;4.59;70.15;95750.38;4163260;28;20049;-78
2020/12/21 05:24:01;;;;;;;36.05;20.70;;;;;;;4.49;70.23;95740.56;4178795;28;20215;-77
2020/12/21 05:26:08;;;;;;;24.10;13.32;;;;;;;4.48;69.77;95738.91;4190247;28;20053;-76
2020/12/21 05:28:14;;;;;;;19.00;11.30;;;;;;;4.49;69.98;95739.75;4169348;28;20089;-78
2020/12/21 05:30:16;;;;;;;15.65;9.50;;;;;;;4.50;70.43;95741.41;4193818;28;20052;-78
2020/12/21 05:32:21;;;;;;;17.90;9.77;;;;;;;4.47;70.21;95737.25;4180517;28;20143;-79
2020/12/21 05:34:26;;;;;;;13.70;8.70;;;;;;;4.48;70.36;95740.69;4191576;28;20147;-79
2020/12/21 05:36:31;;;;;;;27.50;15.05;;;;;;;4.51;70.98;95743.06;4187269;28;20061;-77
2020/12/21 05:38:32;;;;;;;81.97;44.55;;;;;;;4.57;70.68;95739.28;4205909;28;20155;-78
2020/12/21 05:40:33;;;;;;;85.88;50.00;;;;;;;4.59;70.72;95743.44;4205175;28;20052;-69
2020/12/21 05:42:36;;;;;;;19.52;12.27;;;;;;;4.65;70.50;95739.63;4175909;28;20081;-68
2020/12/21 05:44:49;;;;;;;;;;;;;;;4.62;70.35;95738.03;4191061;28;20529;-69
2020/12/21 05:46:50;;;;;;;13.50;8.63;;;;;;;4.63;70.27;95734.53;4172844;28;20102;-69
2020/12/21 05:48:53;;;;;;;16.40;9.15;;;;;;;4.62;70.22;95734.59;4191287;28;20052;-68
2020/12/21 05:50:55;;;;;;;14.07;9.03;;;;;;;4.57;70.44;95741.88;4177090;28;20121;-69
2020/12/21 05:52:57;;;;;;;16.25;10.00;;;;;;;4.56;69.90;95753.16;4173377;28;20049;-69
2020/12/21 05:55:07;;;;;;;18.40;10.10;;;;;;;4.55;70.50;95751.50;4193706;28;20079;-70
2020/12/21 05:57:08;;;;;;;17.67;9.75;;;;;;;4.55;69.97;95751.50;4168315;28;20418;-69
2020/12/21 05:59:10;;;;;;;16.77;9.82;;;;;;;4.52;70.64;95747.34;4192658;28;20071;-70
2020/12/21 06:01:13;;;;;;;18.65;10.13;;;;;;;4.55;70.31;95744.53;4172939;28;20152;-69
2020/12/21 06:03:20;;;;;;;19.98;10.00;;;;;;;4.56;69.78;95746.22;4156695;28;20049;-69
2020/12/21 06:05:27;;;;;;;17.27;9.75;;;;;;;4.45;70.29;95743.44;4156734;28;20500;-70
2020/12/21 06:07:30;;;;;;;18.92;9.25;;;;;;;4.37;70.76;95743.94;4164671;28;20057;-70
2020/12/21 06:09:35;;;;;;;14.53;9.37;;;;;;;4.35;70.60;95743.22;4172767;28;20052;-71
2020/12/21 06:11:39;;;;;;;21.88;10.48;;;;;;;4.38;71.19;95740.41;4190478;28;20060;-70
2020/12/21 06:14:00;;;;;;;;;;;;;;;4.41;71.36;95748.03;4187537;28;20044;-68
2020/12/21 06:16:05;;;;;;;19.02;10.43;;;;;;;4.46;71.21;95748.56;4180087;28;20027;-68
2020/12/21 06:18:07;;;;;;;;;;;;;;;4.51;71.10;95750.84;4190291;28;20071;-69
2020/12/21 06:20:10;;;;;;;87.05;48.90;;;;;;;4.51;71.21;95746.50;4190655;28;19924;-70
2020/12/21 06:22:23;;;;;;;55.10;33.45;;;;;;;4.54;71.13;95742.03;4172089;28;20061;-70
2020/12/21 06:24:25;;;;;;;24.17;15.38;;;;;;;4.53;70.66;95740.38;4173396;28;20049;-70
2020/12/21 06:26:31;;;;;;;18.15;10.68;;;;;;;4.55;70.82;95744.53;4173700;28;20055;-69
2020/12/21 06:28:33;;;;;;;18.40;10.50;;;;;;;4.56;70.80;95746.22;4176181;28;20072;-69
2020/12/21 06:30:34;;;;;;;14.43;9.35;;;;;;;4.62;71.13;95737.19;4158556;28;20575;-71
2020/12/21 06:32:36;;;;;;;19.02;10.55;;;;;;;4.59;70.16;95743.44;4175418;28;20114;-68
2020/12/21 06:34:38;;;;;;;17.55;10.73;;;;;;;4.59;70.78;95747.78;4176647;28;20057;-70
2020/12/21 06:36:59;;;;;;;18.00;9.40;;;;;;;4.59;70.87;95748.63;4176997;28;20571;-69
2020/12/21 06:39:01;;;;;;;16.52;10.68;;;;;;;4.58;70.70;95744.38;4193722;28;20203;-69
2020/12/21 06:41:23;;;;;;;17.02;10.23;;;;;;;4.59;71.11;95752.97;4193601;28;20052;-68
2020/12/21 06:43:37;;;;;;;17.83;10.38;;;;;;;4.60;70.72;95752.03;4187550;28;20104;-69
2020/12/21 06:45:39;;;;;;;18.13;11.05;;;;;;;4.64;70.98;95748.31;4175791;28;20183;-70
2020/12/21 06:47:40;;;;;;;18.63;10.50;;;;;;;4.69;70.99;95744.53;4194103;28;20238;-71
2020/12/21 06:49:41;;;;;;;18.42;11.75;;;;;;;4.69;71.07;95754.06;4177166;28;20061;-77
2020/12/21 06:51:47;;;;;;;18.23;10.88;;;;;;;4.67;71.26;95748.16;4180391;28;20129;-78
2020/12/21 06:54:02;;;;;;;15.52;11.05;;;;;;;4.65;71.22;95752.59;4209246;28;20048;-77
2020/12/21 06:56:12;;;;;;;18.75;11.38;;;;;;;4.66;71.31;95757.66;4196634;28;20048;-80
2020/12/21 06:58:15;;;;;;;16.85;10.75;;;;;;;4.66;70.82;95756.84;4203127;28;20055;-79
2020/12/21 07:00:20;;;;;;;17.75;11.35;;;;;;;4.68;71.26;95757.59;4177584;28;20464;-79
2020/12/21 07:02:22;;;;;;;16.13;10.48;;;;;;;4.70;70.57;95755.72;4176616;28;20567;-77
2020/12/21 07:04:25;;;;;;;18.48;10.35;;;;;;;4.69;70.68;95754.91;4204829;28;20055;-78
2020/12/21 07:06:26;;;;;;;20.27;11.32;;;;;;;4.74;70.64;95751.19;4194528;28;20056;-78
2020/12/21 07:08:27;;;;;;;18.75;10.70;;;;;;;4.78;69.97;95753.47;4207404;28;20067;-77
2020/12/21 07:10:31;;;;;;;21.60;10.63;;;;;;;4.78;70.72;95753.47;4173651;28;20060;-81
2020/12/21 07:12:32;;;;;;;;;;;;;;;4.74;70.14;95748.59;4194279;28;20080;-78
2020/12/21 07:14:36;;;;;;;16.50;9.85;;;;;;;4.59;70.35;95748.63;4169308;28;19976;-77
2020/12/21 07:16:37;;;;;;;17.25;10.10;;;;;;;4.57;70.83;95749.66;4192684;28;20494;-79
2020/12/21 07:18:39;;;;;;;19.88;10.82;;;;;;;4.59;70.55;95755.56;4180473;28;20048;-80
2020/12/21 07:20:41;;;;;;;17.92;11.15;;;;;;;4.64;70.17;95754.34;4192784;28;20048;-80
2020/12/21 07:22:42;;;;;;;17.50;10.73;;;;;;;4.63;70.06;95755.28;4194292;28;20053;-79
2020/12/21 07:24:44;;;;;;;17.30;10.90;;;;;;;4.62;70.82;95763.16;4175183;28;20056;-79
2020/12/21 07:26:45;;;;;;;18.77;11.68;;;;;;;4.61;70.60;95767.53;4187493;28;20090;-78
2020/12/21 07:28:47;;;;;;;21.48;11.07;;;;;;;4.65;70.80;95768.16;4169659;28;20390;-79
2020/12/21 07:30:48;;;;;;;18.38;10.93;;;;;;;4.71;70.19;95770.34;4169911;28;20079;-82
2020/12/21 07:32:52;;;;;;;19.45;10.57;;;;;;;4.69;70.52;95772.25;4176835;28;20051;-78
2020/12/21 07:34:53;;;;;;;20.42;10.88;;;;;;;4.58;70.76;95761.69;4172517;28;20049;-79
2020/12/21 07:36:56;;;;;;;18.55;10.70;;;;;;;4.62;70.97;95763.97;4192912;28;20132;-79
2020/12/21 07:39:07;;;;;;;19.73;11.13;;;;;;;4.70;70.73;95768.69;4192947;28;20056;-80
2020/12/21 07:41:09;;;;;;;17.67;10.20;;;;;;;4.78;70.64;95770.81;4164876;28;20145;-80
2020/12/21 07:43:17;;;;;;;18.90;11.48;;;;;;;4.74;70.18;95771.94;4173852;28;20048;-81
2020/12/21 07:45:22;;;;;;;18.92;10.73;;;;;;;4.72;70.64;95772.88;4163208;28;20049;-80
2020/12/21 07:47:34;;;;;;;15.80;9.95;;;;;;;4.74;70.22;95764.16;4192552;28;20080;-79
2020/12/21 07:49:36;;;;;;;16.08;10.15;;;;;;;4.72;69.97;95767.66;4186787;28;20139;-80
2020/12/21 07:51:41;;;;;;;19.05;10.52;;;;;;;4.72;69.64;95769.44;4205634;28;20051;-80
2020/12/21 07:53:43;;;;;;;15.75;9.80;;;;;;;4.71;69.64;95765.16;4177246;28;20522;-82
2020/12/21 07:55:57;;;;;;;15.52;9.43;;;;;;;4.62;69.74;95763.16;4182452;28;20049;-80
2020/12/21 07:57:58;;;;;;;17.45;9.63;;;;;;;4.67;69.90;95764.53;4184057;28;20484;-78
2020/12/21 08:00:00;;;;;;;14.85;9.68;;;;;;;4.75;69.98;95758.84;4195156;28;20091;-80
2020/12/21 08:02:04;;;;;;;14.43;9.07;;;;;;;4.74;69.23;95757.19;4177857;28;20072;-76
2020/12/21 08:04:13;;;;;;;17.27;9.60;;;;;;;4.76;69.27;95757.94;4193990;28;20109;-79
2020/12/21 08:06:16;;;;;;;12.98;8.30;;;;;;;4.74;69.30;95758.97;4175049;28;20052;-80
2020/12/21 08:08:25;;;;;;;15.00;9.15;;;;;;;4.80;68.93;95758.59;4176413;28;20106;-78
2020/12/21 08:10:26;;;;;;;13.93;8.27;;;;;;;4.82;68.34;95773.13;4175168;28;20559;-76
2020/12/21 08:12:34;;;;;;;12.50;6.70;;;;;;;4.85;68.05;95766.91;4193686;28;20131;-78
2020/12/21 08:14:36;;;;;;;9.13;6.30;;;;;;;4.88;67.94;95769.28;4176435;28;20136;-80
2020/12/21 08:16:37;;;;;;;11.05;7.53;;;;;;;4.86;67.60;95766.81;4175449;28;20404;-79
2020/12/21 08:18:39;;;;;;;16.02;9.65;;;;;;;4.88;67.64;95771.88;4193555;28;20131;-79
2020/12/21 08:20:51;;;;;;;26.63;15.30;;;;;;;4.87;67.94;95771.06;4190046;28;20053;-79
2020/12/21 08:22:52;;;;;;;32.10;15.65;;;;;;;4.88;68.43;95774.47;4193882;28;20151;-79
2020/12/21 08:25:00;;;;;;;29.50;15.55;;;;;;;4.86;68.67;95769.41;4175125;28;20064;-78
2020/12/21 08:27:04;;;;;;;25.40;14.98;;;;;;;4.82;68.55;95765.34;4174408;28;20051;-77
2020/12/21 08:29:06;;;;;;;21.55;15.00;;;;;;;4.83;68.58;95768.75;4179161;28;20068;-79
2020/12/21 08:31:20;;;;;;;26.70;15.30;;;;;;;4.84;68.74;95768.66;4188555;28;20146;-77
2020/12/21 08:33:22;;;;;;;25.33;15.32;;;;;;;4.86;68.25;95769.41;4164653;28;20132;-78
2020/12/21 08:35:28;;;;;;;26.35;16.67;;;;;;;4.85;69.19;95769.50;4166540;28;20063;-79
2020/12/21 08:37:29;;;;;;;34.15;18.33;;;;;;;4.78;68.59;95763.03;4199420;28;20059;-78
2020/12/21 08:39:31;;;;;;;30.38;17.25;;;;;;;4.74;69.09;95769.34;4207599;28;20058;-78
2020/12/21 08:41:43;;;;;;;22.75;15.07;;;;;;;4.76;68.59;95763.13;4188161;28;20045;-81
2020/12/21 08:43:45;;;;;;;27.00;15.73;;;;;;;4.81;68.33;95763.66;4169640;28;20144;-78
2020/12/21 08:45:46;;;;;;;26.80;16.48;;;;;;;4.82;68.20;95760.16;4174802;28;20052;-77
2020/12/21 08:47:50;;;;;;;33.92;20.50;;;;;;;4.82;68.67;95759.28;4205313;28;20345;-77
2020/12/21 08:49:52;;;;;;;33.08;20.98;;;;;;;4.87;68.70;95755.47;4178725;28;20053;-78
2020/12/21 08:52:01;;;;;;;41.15;20.92;;;;;;;4.91;69.95;95746.56;4192828;28;20406;-77
2020/12/21 08:54:03;;;;;;;36.47;21.20;;;;;;;4.96;69.63;95755.81;4188059;28;20516;-80
2020/12/21 08:56:11;;;;;;;33.95;21.95;;;;;;;4.94;69.11;95758.50;4174018;28;20048;-77
2020/12/21 08:58:13;;;;;;;39.22;22.90;;;;;;;4.98;68.87;95748.78;4190617;28;20405;-78
2020/12/21 09:00:14;;;;;;;33.35;21.10;;;;;;;4.98;68.13;95751.38;4174487;28;20456;-79
2020/12/21 09:02:17;;;;;;;36.53;20.85;;;;;;;4.93;68.56;95747.31;4174092;28;20064;-79
2020/12/21 09:04:18;;;;;;;30.77;19.40;;;;;;;4.92;68.04;95745.63;4192709;28;20053;-79
2020/12/21 09:06:21;;;;;;;34.75;21.75;;;;;;;4.96;68.46;95740.25;4201725;28;20048;-79
2020/12/21 09:08:30;;;;;;;37.53;23.70;;;;;;;4.91;68.49;95743.16;4160816;28;20053;-79
2020/12/21 09:10:31;;;;;;;35.65;23.15;;;;;;;4.85;68.78;95743.53;4185496;28;20306;-80
2020/12/21 09:12:33;;;;;;;39.20;24.00;;;;;;;4.89;68.24;95735.44;4186655;28;20513;-81
2020/12/21 09:14:36;;;;;;;41.33;24.85;;;;;;;4.84;68.67;95742.72;4179844;28;20052;-78
2020/12/21 09:16:38;;;;;;;39.92;26.52;;;;;;;4.85;68.38;95746.13;4185243;28;20497;-79
2020/12/21 09:18:40;;;;;;;41.70;24.45;;;;;;;4.86;68.85;95734.78;4192777;28;20204;-80
2020/12/21 09:20:42;;;;;;;39.05;23.60;;;;;;;4.88;68.88;95744.19;4169142;28;20060;-80
2020/12/21 09:22:43;;;;;;;32.53;21.10;;;;;;;4.62;69.45;95743.22;4191720;28;20105;-79
2020/12/21 09:24:45;;;;;;;40.03;21.48;;;;;;;4.47;70.03;95737.25;4199974;28;20448;-77
2020/12/21 09:26:47;;;;;;;40.22;22.80;;;;;;;4.51;69.68;95735.28;4181931;28;20059;-77
2020/12/21 09:28:50;;;;;;;33.15;22.67;;;;;;;4.60;69.95;95731.28;4186732;28;20061;-76
2020/12/21 09:30:51;;;;;;;44.88;23.27;;;;;;;4.58;70.13;95731.41;4174846;28;20137;-78
2020/12/21 09:32:52;;;;;;;30.08;19.77;;;;;;;4.43;69.57;95735.78;4203045;28;20407;-78
2020/12/21 09:34:54;;;;;;;36.38;21.88;;;;;;;3.93;71.30;95737.13;4203417;28;20099;-77
2020/12/21 09:36:55;;;;;;;33.08;20.58;;;;;;;3.81;71.78;95730.09;4196094;28;20367;-79